sensor_id;sensor_type;location;lat;lon;timestamp;pressure;altitude;pressure_sealevel;temperature;humidity
37776;BME280;23614;33.774;130.514;2023-07-09T00:00:02;100053.84;;;29.16;56.93
37776;BME280;23614;33.774;130.514;2023-07-09T00:02:29;100050.06;;;28.98;57.15
37776;BME280;23614;33.774;130.514;2023-07-09T00:04:54;100055.28;;;29.08;56.78
37776;BME280;23614;33.774;130.514;2023-07-09T00:07:23;100049.92;;;29.04;56.66
37776;BME280;23614;33.774;130.514;2023-07-09T00:09:46;100050.22;;;29.21;56.96
37776;BME280;23614;33.774;130.514;2023-07-09T00:12:14;100053.30;;;29.02;57.18
37776;BME280;23614;33.774;130.514;2023-07-09T00:14:38;100056.54;;;29.33;56.55
37776;BME280;23614;33.774;130.514;2023-07-09T00:17:08;100055.96;;;28.93;57.18
37776;BME280;23614;33.774;130.514;2023-07-09T00:19:30;100058.17;;;29.15;56.67
37776;BME280;23614;33.774;130.514;2023-07-09T00:21:56;100035.71;;;28.98;56.78
37776;BME280;23614;33.774;130.514;2023-07-09T00:24:22;100033.62;;;29.35;56.49
37776;BME280;23614;33.774;130.514;2023-07-09T00:26:48;100030.27;;;29.26;56.23
37776;BME280;23614;33.774;130.514;2023-07-09T00:29:15;100026.37;;;29.20;56.33
37776;BME280;23614;33.774;130.514;2023-07-09T00:31:40;100028.21;;;29.26;56.38
37776;BME280;23614;33.774;130.514;2023-07-09T00:34:06;100040.57;;;29.07;56.81
37776;BME280;23614;33.774;130.514;2023-07-09T00:36:32;100051.85;;;28.70;57.67
37776;BME280;23614;33.774;130.514;2023-07-09T00:38:58;100056.51;;;28.41;58.72
37776;BME280;23614;33.774;130.514;2023-07-09T00:41:24;100055.49;;;27.16;60.43
37776;BME280;23614;33.774;130.514;2023-07-09T00:43:51;100079.54;;;27.77;60.20
37776;BME280;23614;33.774;130.514;2023-07-09T00:47:18;100089.15;;;27.57;60.94
37776;BME280;23614;33.774;130.514;2023-07-09T00:48:42;100097.80;;;26.88;62.66
37776;BME280;23614;33.774;130.514;2023-07-09T00:51:11;100094.16;;;26.68;63.24
37776;BME280;23614;33.774;130.514;2023-07-09T00:53:33;100099.46;;;26.24;64.08
37776;BME280;23614;33.774;130.514;2023-07-09T00:56:04;100100.21;;;26.87;62.58
37776;BME280;23614;33.774;130.514;2023-07-09T00:58:26;100107.87;;;27.05;61.64
37776;BME280;23614;33.774;130.514;2023-07-09T01:00:54;100111.34;;;26.77;62.06
37776;BME280;23614;33.774;130.514;2023-07-09T01:03:24;100117.43;;;26.85;61.96
37776;BME280;23614;33.774;130.514;2023-07-09T01:05:44;100123.46;;;27.20;61.26
37776;BME280;23614;33.774;130.514;2023-07-09T01:08:10;100124.29;;;26.60;62.10
37776;BME280;23614;33.774;130.514;2023-07-09T01:10:36;100115.60;;;26.73;62.13
37776;BME280;23614;33.774;130.514;2023-07-09T01:13:02;100106.08;;;27.17;60.61
37776;BME280;23614;33.774;130.514;2023-07-09T01:15:28;100106.13;;;27.34;60.13
37776;BME280;23614;33.774;130.514;2023-07-09T01:17:54;100103.88;;;27.06;60.56
37776;BME280;23614;33.774;130.514;2023-07-09T01:20:21;100100.44;;;27.23;60.08
37776;BME280;23614;33.774;130.514;2023-07-09T01:22:46;100100.02;;;27.14;60.31
37776;BME280;23614;33.774;130.514;2023-07-09T01:25:12;100097.14;;;27.13;60.55
37776;BME280;23614;33.774;130.514;2023-07-09T01:27:41;100090.04;;;27.54;58.95
37776;BME280;23614;33.774;130.514;2023-07-09T01:30:07;100082.86;;;27.39;59.19
37776;BME280;23614;33.774;130.514;2023-07-09T01:32:29;100082.12;;;27.61;58.23
37776;BME280;23614;33.774;130.514;2023-07-09T01:34:58;100087.20;;;27.38;58.48
37776;BME280;23614;33.774;130.514;2023-07-09T01:37:25;100084.58;;;27.80;57.92
37776;BME280;23614;33.774;130.514;2023-07-09T01:39:48;100078.49;;;27.97;57.38
37776;BME280;23614;33.774;130.514;2023-07-09T01:42:13;100072.69;;;28.19;56.60
37776;BME280;23614;33.774;130.514;2023-07-09T01:44:40;100070.42;;;28.02;56.52
